Time;durP1;ratioP1;P1;durP2;ratioP2;P2;SDS_P1;SDS_P2;PMS_P1;PMS_P2;Temp;Humidity;BMP_temperature;BMP_pressure;BME280_temperature;BME280_humidity;BME280_pressure;Samples;Min_cycle;Max_cycle;Signal;HPM_P1;HPM_P2
2023/08/30 00:01:05;;;;;;;9.75;5.05;;;;;;;;;;5053948;28;20367;-26
2023/08/30 00:03:31;;;;;;;11.25;5.07;;;;;;;;;;5053298;28;20023;-26
2023/08/30 00:06:01;;;;;;;10.40;5.00;;;;;;;;;;5050610;28;20052;-27
2023/08/30 00:08:26;;;;;;;8.35;5.00;;;;;;;;;;5049710;28;20421;-27
2023/08/30 00:10:52;;;;;;;10.27;5.30;;;;;;;;;;5049483;28;20107;-27
2023/08/30 00:13:17;;;;;;;8.23;4.90;;;;;;;;;;5049294;28;20283;-27
2023/08/30 00:15:42;;;;;;;14.87;5.30;;;;;;;;;;5049111;28;20255;-27
2023/08/30 00:18:07;;;;;;;8.20;4.77;;;;;;;;;;5049724;28;20642;-26
2023/08/30 00:20:33;;;;;;;8.43;5.18;;;;;;;;;;5049286;28;20263;-26
2023/08/30 00:22:58;;;;;;;7.65;4.97;;;;;;;;;;5048488;28;20016;-26
2023/08/30 00:25:23;;;;;;;10.63;5.23;;;;;;;;;;5049574;28;20044;-26
2023/08/30 00:27:49;;;;;;;8.70;4.90;;;;;;;;;;5050728;28;20306;-26
2023/08/30 00:30:14;;;;;;;11.00;5.50;;;;;;;;;;5051586;28;20418;-26
2023/08/30 00:32:39;;;;;;;8.13;5.20;;;;;;;;;;5053014;28;20638;-26
2023/08/30 00:35:04;;;;;;;9.60;5.40;;;;;;;;;;5053085;28;20258;-26
2023/08/30 00:37:30;;;;;;;11.40;5.78;;;;;;;;;;5053097;28;20260;-26
2023/08/30 00:39:55;;;;;;;11.80;5.60;;;;;;;;;;5055370;28;20050;-26
2023/08/30 00:42:20;;;;;;;7.63;5.20;;;;;;;;;;5057563;28;20271;-26
2023/08/30 00:44:45;;;;;;;7.45;5.35;;;;;;;;;;5056111;28;20271;-26
2023/08/30 00:47:11;;;;;;;8.65;5.45;;;;;;;;;;5057187;28;20020;-26
2023/08/30 00:49:36;;;;;;;7.63;5.50;;;;;;;;;;5056895;28;20441;-27
2023/08/30 00:52:03;;;;;;;8.10;5.70;;;;;;;;;;5057396;28;20017;-26
2023/08/30 00:54:28;;;;;;;11.27;5.60;;;;;;;;;;5057832;28;20017;-26
2023/08/30 00:56:54;;;;;;;10.70;6.10;;;;;;;;;;5057099;28;20539;-26
2023/08/30 00:59:19;;;;;;;11.60;5.90;;;;;;;;;;5057315;28;20017;-27
2023/08/30 01:01:45;;;;;;;9.45;5.60;;;;;;;;;;5057294;28;20449;-26
2023/08/30 01:04:10;;;;;;;9.68;6.03;;;;;;;;;;5056615;28;20377;-26
2023/08/30 01:06:35;;;;;;;11.50;6.20;;;;;;;;;;5056895;28;20024;-26
2023/08/30 01:09:01;;;;;;;10.87;6.40;;;;;;;;;;5057173;28;20025;-26
2023/08/30 01:11:32;;;;;;;12.32;6.40;;;;;;;;;;5056977;28;20016;-26
2023/08/30 01:14:00;;;;;;;9.65;6.32;;;;;;;;;;5056445;28;20488;-26
2023/08/30 01:16:26;;;;;;;13.63;6.95;;;;;;;;;;5056421;28;20029;-26
2023/08/30 01:18:54;;;;;;;9.23;6.50;;;;;;;;;;5056666;28;20483;-26
2023/08/30 01:21:32;;;;;;;11.95;6.82;;;;;;;;;;5056665;28;20021;-26
2023/08/30 01:24:03;;;;;;;9.95;6.10;;;;;;;;;;5055424;28;20166;-26
2023/08/30 01:26:36;;;;;;;11.23;6.40;;;;;;;;;;5056774;28;20096;-26
2023/08/30 01:29:03;;;;;;;12.02;6.18;;;;;;;;;;5056535;28;20524;-26
2023/08/30 01:31:29;;;;;;;10.68;6.38;;;;;;;;;;5056011;28;20052;-26
2023/08/30 01:33:56;;;;;;;11.15;6.75;;;;;;;;;;5056411;28;20029;-26
2023/08/30 01:36:22;;;;;;;11.55;6.88;;;;;;;;;;5056395;28;20012;-26
2023/08/30 01:38:47;;;;;;;12.02;6.80;;;;;;;;;;5056552;28;20466;-26
2023/08/30 01:41:12;;;;;;;9.40;6.47;;;;;;;;;;5055999;28;20025;-26
2023/08/30 01:43:38;;;;;;;9.65;6.43;;;;;;;;;;5056475;28;20606;-26
2023/08/30 01:46:04;;;;;;;14.43;7.07;;;;;;;;;;5056404;28;20055;-26
2023/08/30 01:48:29;;;;;;;11.25;6.80;;;;;;;;;;5054041;28;20067;-26
2023/08/30 01:50:58;;;;;;;10.32;6.43;;;;;;;;;;5052384;28;20078;-26
2023/08/30 01:53:24;;;;;;;10.23;6.80;;;;;;;;;;5053912;28;20210;-26
2023/08/30 01:55:49;;;;;;;9.45;6.60;;;;;;;;;;5053533;28;20036;-26
2023/08/30 01:58:14;;;;;;;13.43;6.78;;;;;;;;;;5054045;28;20460;-26
2023/08/30 02:00:40;;;;;;;12.25;6.97;;;;;;;;;;5053669;28;20468;-26
2023/08/30 02:03:11;;;;;;;9.65;6.20;;;;;;;;;;5053506;28;20029;-26
2023/08/30 02:05:38;;;;;;;9.60;6.03;;;;;;;;;;5053709;28;20011;-26
2023/08/30 02:08:14;;;;;;;13.02;6.70;;;;;;;;;;5053310;28;20029;-26
2023/08/30 02:10:41;;;;;;;12.15;6.72;;;;;;;;;;5053376;28;20017;-27
2023/08/30 02:13:06;;;;;;;11.43;6.70;;;;;;;;;;5053594;28;20013;-26
2023/08/30 02:15:32;;;;;;;8.40;6.35;;;;;;;;;;5054219;28;20451;-26
2023/08/30 02:17:57;;;;;;;11.68;7.00;;;;;;;;;;5055298;28;20372;-26
2023/08/30 02:20:22;;;;;;;12.95;7.53;;;;;;;;;;5055286;28;20129;-26
2023/08/30 02:22:48;;;;;;;10.18;7.00;;;;;;;;;;5055519;28;20024;-26
2023/08/30 02:25:13;;;;;;;11.50;6.17;;;;;;;;;;5055227;28;20071;-27
2023/08/30 02:27:38;;;;;;;10.98;6.95;;;;;;;;;;5053816;28;20680;-26
2023/08/30 02:30:04;;;;;;;9.43;6.40;;;;;;;;;;5055162;28;20055;-26
2023/08/30 02:32:29;;;;;;;12.85;6.57;;;;;;;;;;5055362;28;20013;-26
2023/08/30 02:34:56;;;;;;;11.07;6.50;;;;;;;;;;5055243;28;20514;-26
2023/08/30 02:37:21;;;;;;;12.52;6.68;;;;;;;;;;5054935;28;20108;-27
2023/08/30 02:39:46;;;;;;;11.27;6.65;;;;;;;;;;5055141;28;20048;-27
2023/08/30 02:42:11;;;;;;;12.45;6.50;;;;;;;;;;5055129;28;20420;-27
2023/08/30 02:44:36;;;;;;;11.93;6.57;;;;;;;;;;5054819;28;20032;-27
2023/08/30 02:47:02;;;;;;;13.10;6.67;;;;;;;;;;5055313;28;20259;-27
2023/08/30 02:49:27;;;;;;;11.07;6.65;;;;;;;;;;5054652;28;20017;-27
2023/08/30 02:51:52;;;;;;;13.47;6.97;;;;;;;;;;5054974;28;20048;-27
2023/08/30 02:54:17;;;;;;;13.25;6.68;;;;;;;;;;5055161;28;20452;-27
2023/08/30 02:56:43;;;;;;;12.20;6.80;;;;;;;;;;5054876;28;20062;-27
2023/08/30 02:59:09;;;;;;;11.20;6.25;;;;;;;;;;5054518;28;20254;-27
2023/08/30 03:01:34;;;;;;;12.30;6.88;;;;;;;;;;5054412;28;20096;-27
2023/08/30 03:03:59;;;;;;;12.25;7.20;;;;;;;;;;5054400;28;20021;-27
2023/08/30 03:06:25;;;;;;;13.93;7.33;;;;;;;;;;5054419;28;20036;-27
2023/08/30 03:08:50;;;;;;;12.67;7.30;;;;;;;;;;5054383;28;20013;-27
2023/08/30 03:11:15;;;;;;;12.65;7.10;;;;;;;;;;5054259;28;20332;-27
2023/08/30 03:13:40;;;;;;;12.13;7.83;;;;;;;;;;5054454;28;20178;-27
2023/08/30 03:16:12;;;;;;;10.73;7.20;;;;;;;;;;5054701;28;20744;-27
2023/08/30 03:18:39;;;;;;;12.02;7.50;;;;;;;;;;5054463;28;20646;-26
2023/08/30 03:21:04;;;;;;;15.88;7.80;;;;;;;;;;5054302;28;20055;-26
2023/08/30 03:23:31;;;;;;;11.80;7.70;;;;;;;;;;5054535;28;20121;-26
2023/08/30 03:25:56;;;;;;;11.82;7.38;;;;;;;;;;5054478;28;20021;-26
2023/08/30 03:28:22;;;;;;;14.15;7.57;;;;;;;;;;5052905;28;20031;-26
2023/08/30 03:30:47;;;;;;;13.98;7.93;;;;;;;;;;5053471;28;20460;-26
2023/08/30 03:33:13;;;;;;;11.15;7.47;;;;;;;;;;5054098;28;20078;-27
2023/08/30 03:35:38;;;;;;;14.45;8.15;;;;;;;;;;5054190;28;20108;-26
2023/08/30 03:38:04;;;;;;;13.93;8.13;;;;;;;;;;5052590;28;20073;-26
2023/08/30 03:40:29;;;;;;;14.10;8.40;;;;;;;;;;5052680;28;20100;-27
2023/08/30 03:42:55;;;;;;;14.32;7.72;;;;;;;;;;5052529;28;20023;-26
2023/08/30 03:45:20;;;;;;;12.40;8.07;;;;;;;;;;5053688;28;20128;-26
2023/08/30 03:47:45;;;;;;;12.27;7.90;;;;;;;;;;5053659;28;20016;-26
2023/08/30 03:50:10;;;;;;;14.25;8.40;;;;;;;;;;5052538;28;20313;-26
2023/08/30 03:52:35;;;;;;;12.57;8.53;;;;;;;;;;5053531;28;20024;-26
2023/08/30 03:55:01;;;;;;;14.38;8.57;;;;;;;;;;5053809;28;20264;-26
2023/08/30 03:57:26;;;;;;;14.03;8.60;;;;;;;;;;5053538;28;20017;-26
2023/08/30 03:59:51;;;;;;;17.77;9.05;;;;;;;;;;5052209;28;20359;-26
2023/08/30 04:02:16;;;;;;;17.93;9.40;;;;;;;;;;5053670;28;20112;-26
2023/08/30 04:04:42;;;;;;;14.85;9.02;;;;;;;;;;5053631;28;20726;-26
2023/08/30 04:07:07;;;;;;;16.55;9.20;;;;;;;;;;5053640;28;20449;-26
2023/08/30 04:09:32;;;;;;;15.70;9.70;;;;;;;;;;5053804;28;20455;-26
2023/08/30 04:11:59;;;;;;;13.93;9.20;;;;;;;;;;5052058;28;20346;-26
2023/08/30 04:14:24;;;;;;;15.77;8.77;;;;;;;;;;5052480;28;20097;-26
2023/08/30 04:16:49;;;;;;;16.53;9.80;;;;;;;;;;5053293;28;20112;-26
2023/08/30 04:19:14;;;;;;;15.57;9.40;;;;;;;;;;5053332;28;20710;-26
2023/08/30 04:21:39;;;;;;;15.05;8.93;;;;;;;;;;5053470;28;20259;-26
2023/08/30 04:24:05;;;;;;;14.83;9.13;;;;;;;;;;5053757;28;20022;-26
2023/08/30 04:26:30;;;;;;;17.70;9.68;;;;;;;;;;5053728;28;20259;-26
2023/08/30 04:28:55;;;;;;;16.33;10.07;;;;;;;;;;5054167;28;20017;-25
2023/08/30 04:31:20;;;;;;;15.50;9.50;;;;;;;;;;5053270;28;20421;-25
2023/08/30 04:33:45;;;;;;;16.47;9.63;;;;;;;;;;5053085;28;20247;-26
2023/08/30 04:36:11;;;;;;;19.13;10.53;;;;;;;;;;5053356;28;20265;-26
2023/08/30 04:38:36;;;;;;;15.07;9.97;;;;;;;;;;5053012;28;20796;-25
2023/08/30 04:41:01;;;;;;;16.43;9.97;;;;;;;;;;5053036;28;20247;-26
2023/08/30 04:43:26;;;;;;;17.48;10.05;;;;;;;;;;5053169;28;20396;-26
2023/08/30 04:45:51;;;;;;;16.83;10.40;;;;;;;;;;5053016;28;20025;-26
2023/08/30 04:48:17;;;;;;;18.50;9.27;;;;;;;;;;5051614;28;20773;-26
2023/08/30 04:50:42;;;;;;;16.95;9.88;;;;;;;;;;5053131;28;20299;-26
2023/08/30 04:53:07;;;;;;;18.15;10.07;;;;;;;;;;5053134;28;20032;-25
2023/08/30 04:55:32;;;;;;;17.47;10.57;;;;;;;;;;5052788;28;20013;-26
2023/08/30 04:57:57;;;;;;;17.60;9.87;;;;;;;;;;5052768;28;20263;-26
2023/08/30 05:00:23;;;;;;;14.70;9.65;;;;;;;;;;5052926;28;20654;-26
2023/08/30 05:02:48;;;;;;;16.38;9.80;;;;;;;;;;5052790;28;20025;-26
2023/08/30 05:05:14;;;;;;;15.55;9.02;;;;;;;;;;5053037;28;20047;-26
2023/08/30 05:07:39;;;;;;;15.95;9.63;;;;;;;;;;5053335;28;20412;-26
2023/08/30 05:10:05;;;;;;;16.30;9.40;;;;;;;;;;5052647;28;20021;-26
2023/08/30 05:12:31;;;;;;;19.70;9.82;;;;;;;;;;5053039;28;20259;-26
2023/08/30 05:14:56;;;;;;;16.07;9.20;;;;;;;;;;5052670;28;20133;-26
2023/08/30 05:17:21;;;;;;;17.40;9.45;;;;;;;;;;5053213;28;20029;-26
2023/08/30 05:19:46;;;;;;;15.80;9.68;;;;;;;;;;5053237;28;20017;-26
2023/08/30 05:22:12;;;;;;;16.00;9.40;;;;;;;;;;5052580;28;20021;-26
2023/08/30 05:24:37;;;;;;;14.73;9.07;;;;;;;;;;5052583;28;20048;-25
2023/08/30 05:27:02;;;;;;;13.47;8.37;;;;;;;;;;5056481;28;20107;-26
2023/08/30 05:29:28;;;;;;;14.45;9.20;;;;;;;;;;5056202;28;20256;-26
2023/08/30 05:31:53;;;;;;;16.23;8.73;;;;;;;;;;5056315;28;20013;-25
2023/08/30 05:34:18;;;;;;;13.13;8.03;;;;;;;;;;5056043;28;20092;-26
2023/08/30 05:36:43;;;;;;;14.23;8.37;;;;;;;;;;5056243;28;20271;-26
2023/08/30 05:39:08;;;;;;;13.57;8.10;;;;;;;;;;5056136;28;20255;-26
2023/08/30 05:41:34;;;;;;;12.90;8.05;;;;;;;;;;5056299;28;20259;-26
2023/08/30 05:43:59;;;;;;;15.45;8.57;;;;;;;;;;5055977;28;20498;-26
2023/08/30 05:46:24;;;;;;;16.40;8.73;;;;;;;;;;5054567;28;20108;-27
2023/08/30 05:48:50;;;;;;;13.70;8.00;;;;;;;;;;5054504;28;20262;-26
2023/08/30 05:51:15;;;;;;;13.70;8.48;;;;;;;;;;5055608;28;20028;-26
2023/08/30 05:53:40;;;;;;;15.17;8.13;;;;;;;;;;5055797;28;20056;-26
2023/08/30 05:56:05;;;;;;;13.70;8.05;;;;;;;;;;5055446;28;20681;-26
2023/08/30 05:58:31;;;;;;;12.63;7.80;;;;;;;;;;5055763;28;20036;-27
2023/08/30 06:00:56;;;;;;;15.83;7.90;;;;;;;;;;5055400;28;20362;-27
2023/08/30 06:03:22;;;;;;;13.98;8.32;;;;;;;;;;5055854;28;20259;-27
2023/08/30 06:05:48;;;;;;;13.15;8.45;;;;;;;;;;5055576;28;20460;-26
2023/08/30 06:08:13;;;;;;;17.90;8.80;;;;;;;;;;5055438;28;20028;-27
2023/08/30 06:10:39;;;;;;;17.65;9.68;;;;;;;;;;5055223;28;20506;-27
2023/08/30 06:13:04;;;;;;;18.02;9.57;;;;;;;;;;5055344;28;20068;-27
2023/08/30 06:15:29;;;;;;;15.98;8.88;;;;;;;;;;5055170;28;20083;-27
2023/08/30 06:17:54;;;;;;;13.93;8.85;;;;;;;;;;5055183;28;20013;-27
2023/08/30 06:20:20;;;;;;;16.38;9.23;;;;;;;;;;5055763;28;20032;-26
2023/08/30 06:22:45;;;;;;;18.40;10.00;;;;;;;;;;5055413;28;20031;-26
2023/08/30 06:25:10;;;;;;;16.27;9.60;;;;;;;;;;5055182;28;20028;-27
2023/08/30 06:27:40;;;;;;;18.20;9.65;;;;;;;;;;5054717;28;20302;-27
2023/08/30 06:30:06;;;;;;;19.90;10.18;;;;;;;;;;5054380;28;20051;-27
2023/08/30 06:32:31;;;;;;;21.08;10.52;;;;;;;;;;5054721;28;20013;-27
2023/08/30 06:34:57;;;;;;;22.45;10.48;;;;;;;;;;5053469;28;20009;-27
2023/08/30 06:37:22;;;;;;;18.98;10.55;;;;;;;;;;5053706;28;20028;-27
2023/08/30 06:39:47;;;;;;;18.80;10.30;;;;;;;;;;5054643;28;20527;-27
2023/08/30 06:42:12;;;;;;;17.50;10.13;;;;;;;;;;5054468;28;20263;-27
2023/08/30 06:44:37;;;;;;;19.85;10.52;;;;;;;;;;5055085;28;20256;-27
2023/08/30 06:47:03;;;;;;;19.90;10.45;;;;;;;;;;5055006;28;20475;-27
2023/08/30 06:49:28;;;;;;;19.10;11.30;;;;;;;;;;5054922;28;20447;-27
2023/08/30 06:51:53;;;;;;;19.70;10.23;;;;;;;;;;5054526;28;20075;-27
2023/08/30 06:54:18;;;;;;;19.10;10.47;;;;;;;;;;5055073;28;20021;-26
2023/08/30 06:56:59;;;;;;;16.00;9.77;;;;;;;;;;5054618;28;20325;-27
2023/08/30 06:59:25;;;;;;;21.45;11.25;;;;;;;;;;5053229;28;20259;-27
2023/08/30 07:01:50;;;;;;;18.88;10.82;;;;;;;;;;5055026;28;20020;-27
2023/08/30 07:04:15;;;;;;;23.83;10.37;;;;;;;;;;5054387;28;20048;-27
2023/08/30 07:06:40;;;;;;;15.77;10.07;;;;;;;;;;5054238;28;20338;-27
2023/08/30 07:09:06;;;;;;;20.20;11.00;;;;;;;;;;5054849;28;20025;-26
2023/08/30 07:11:31;;;;;;;20.15;11.00;;;;;;;;;;5054407;28;20318;-27
2023/08/30 07:13:56;;;;;;;19.40;10.68;;;;;;;;;;5054219;28;20461;-26
2023/08/30 07:16:22;;;;;;;17.37;10.33;;;;;;;;;;5054400;28;20100;-27
2023/08/30 07:18:47;;;;;;;18.77;11.07;;;;;;;;;;5053844;28;20267;-27
2023/08/30 07:21:12;;;;;;;17.77;10.15;;;;;;;;;;5053040;28;20255;-27
2023/08/30 07:23:37;;;;;;;16.23;10.30;;;;;;;;;;5054258;28;20039;-27
2023/08/30 07:26:03;;;;;;;18.65;9.80;;;;;;;;;;5053947;28;20737;-27
2023/08/30 07:28:28;;;;;;;19.20;10.38;;;;;;;;;;5053917;28;20423;-27
2023/08/30 07:31:01;;;;;;;18.70;10.20;;;;;;;;;;5054300;28;20048;-27
2023/08/30 07:33:26;;;;;;;18.00;10.10;;;;;;;;;;5053998;28;20343;-27
2023/08/30 07:35:53;;;;;;;17.93;10.77;;;;;;;;;;5053743;28;20044;-26
2023/08/30 07:38:18;;;;;;;15.13;9.68;;;;;;;;;;5053769;28;20256;-27
2023/08/30 07:40:43;;;;;;;18.77;11.00;;;;;;;;;;5053692;28;20078;-27
2023/08/30 07:43:09;;;;;;;18.98;10.13;;;;;;;;;;5053877;28;20293;-26
2023/08/30 07:45:34;;;;;;;21.00;10.38;;;;;;;;;;5054128;28;20068;-27
2023/08/30 07:47:59;;;;;;;17.75;9.13;;;;;;;;;;5053804;28;20049;-27
2023/08/30 07:50:24;;;;;;;17.63;9.65;;;;;;;;;;5054044;28;20021;-27
2023/08/30 07:52:49;;;;;;;19.25;10.27;;;;;;;;;;5068248;22;20136;-74
2023/08/30 07:55:15;;;;;;;19.70;9.65;;;;;;;;;;5055967;28;20021;-74
2023/08/30 07:57:40;;;;;;;16.70;8.80;;;;;;;;;;5052552;28;20028;-75
2023/08/30 08:00:06;;;;;;;15.32;9.30;;;;;;;;;;5053318;28;20280;-73
2023/08/30 08:02:31;;;;;;;16.38;9.23;;;;;;;;;;5035738;28;20032;-74
2023/08/30 08:04:56;;;;;;;14.70;8.43;;;;;;;;;;5053681;28;20025;-74
2023/08/30 08:07:21;;;;;;;15.63;8.73;;;;;;;;;;5053805;28;20017;-72
2023/08/30 08:09:47;;;;;;;16.03;7.87;;;;;;;;;;5055911;28;20278;-72
2023/08/30 08:12:12;;;;;;;11.90;6.55;;;;;;;;;;5054814;28;20753;-73
2023/08/30 08:14:37;;;;;;;9.80;6.07;;;;;;;;;;5053839;28;20021;-72
2023/08/30 08:17:04;;;;;;;6.90;4.90;;;;;;;;;;5054940;28;20472;-72
2023/08/30 08:19:29;;;;;;;7.85;4.97;;;;;;;;;;5055185;28;20268;-72
2023/08/30 08:21:54;;;;;;;6.37;4.70;;;;;;;;;;5052925;28;20387;-72
2023/08/30 08:24:19;;;;;;;7.65;4.63;;;;;;;;;;5053530;28;20270;-72
2023/08/30 08:26:45;;;;;;;7.90;4.67;;;;;;;;;;5053442;28;20468;-72
2023/08/30 08:29:11;;;;;;;8.75;5.15;;;;;;;;;;5051725;28;20350;-72
2023/08/30 08:31:36;;;;;;;9.82;4.72;;;;;;;;;;5052784;28;20047;-72
2023/08/30 08:34:09;;;;;;;10.32;5.10;;;;;;;;;;5053159;28;20013;-72
2023/08/30 08:36:35;;;;;;;6.53;4.97;;;;;;;;;;5053001;28;20024;-71
2023/08/30 08:39:00;;;;;;;10.65;4.82;;;;;;;;;;5052890;28;20013;-72
2023/08/30 08:41:28;;;;;;;8.30;5.00;;;;;;;;;;5052840;28;20100;-71
2023/08/30 08:43:54;;;;;;;9.23;5.25;;;;;;;;;;5053069;28;20290;-71
2023/08/30 08:46:20;;;;;;;8.05;4.78;;;;;;;;;;5054585;28;20025;-72
2023/08/30 08:48:47;;;;;;;12.35;5.43;;;;;;;;;;5052084;28;20466;-71
2023/08/30 08:51:13;;;;;;;9.75;5.35;;;;;;;;;;5052941;28;20059;-71
2023/08/30 08:53:38;;;;;;;8.98;5.07;;;;;;;;;;5053547;28;20029;-71
2023/08/30 08:56:04;;;;;;;9.15;5.15;;;;;;;;;;5052025;28;20104;-71
2023/08/30 08:58:30;;;;;;;10.10;5.60;;;;;;;;;;5052887;28;20354;-71
2023/08/30 09:00:55;;;;;;;10.05;5.25;;;;;;;;;;5054182;28;20021;-72
2023/08/30 09:03:21;;;;;;;8.20;5.28;;;;;;;;;;5056113;28;20021;-71
2023/08/30 09:05:47;;;;;;;9.57;5.30;;;;;;;;;;5054719;28;20427;-70
2023/08/30 09:08:13;;;;;;;10.77;5.57;;;;;;;;;;5054577;28;20013;-71
2023/08/30 09:10:39;;;;;;;8.43;5.65;;;;;;;;;;5055999;28;20048;-71
2023/08/30 09:13:04;;;;;;;8.18;5.30;;;;;;;;;;5057740;28;20369;-72
2023/08/30 09:15:32;;;;;;;7.40;5.10;;;;;;;;;;5055714;28;20016;-73
2023/08/30 09:17:58;;;;;;;7.85;5.10;;;;;;;;;;5057015;28;20339;-72
2023/08/30 09:20:23;;;;;;;7.25;5.05;;;;;;;;;;5059804;28;20052;-72
2023/08/30 09:22:49;;;;;;;8.73;5.27;;;;;;;;;;5058396;28;20024;-72
2023/08/30 09:25:24;;;;;;;7.90;5.28;;;;;;;;;;5059497;28;20260;-72
2023/08/30 09:27:49;;;;;;;7.60;5.15;;;;;;;;;;5056673;28;20460;-72
2023/08/30 09:30:14;;;;;;;7.73;5.60;;;;;;;;;;5056143;28;20028;-72
2023/08/30 09:32:41;;;;;;;7.23;5.20;;;;;;;;;;5055076;28;20279;-73
2023/08/30 09:35:07;;;;;;;8.10;5.55;;;;;;;;;;5055123;28;20358;-72
2023/08/30 09:37:32;;;;;;;7.15;5.47;;;;;;;;;;5056132;28;20066;-73
2023/08/30 09:39:57;;;;;;;9.00;5.50;;;;;;;;;;5055762;28;20017;-72
2023/08/30 09:42:22;;;;;;;8.15;6.05;;;;;;;;;;5054810;28;20283;-72
2023/08/30 09:44:48;;;;;;;9.00;6.17;;;;;;;;;;5056297;28;20021;-72
2023/08/30 09:47:15;;;;;;;9.00;5.93;;;;;;;;;;5055871;28;20259;-73
2023/08/30 09:49:45;;;;;;;10.15;6.55;;;;;;;;;;5054643;28;20103;-73
2023/08/30 09:52:10;;;;;;;10.25;7.32;;;;;;;;;;5056110;28;20049;-73
2023/08/30 09:54:38;;;;;;;11.30;6.15;;;;;;;;;;5054849;28;20112;-73
2023/08/30 09:57:04;;;;;;;9.55;6.80;;;;;;;;;;5056616;28;20067;-73
2023/08/30 09:59:30;;;;;;;9.63;6.70;;;;;;;;;;5057045;28;20075;-73
2023/08/30 10:01:57;;;;;;;9.25;6.85;;;;;;;;;;5058168;28;20403;-73
2023/08/30 10:04:23;;;;;;;10.18;6.82;;;;;;;;;;5055981;28;20021;-73
2023/08/30 10:06:49;;;;;;;10.32;7.40;;;;;;;;;;5055275;28;20028;-73
2023/08/30 10:09:14;;;;;;;8.95;6.90;;;;;;;;;;5054663;28;20021;-73
2023/08/30 10:11:40;;;;;;;7.68;6.68;;;;;;;;;;5057125;28;20114;-71
2023/08/30 10:14:05;;;;;;;9.10;6.50;;;;;;;;;;5055631;28;20063;-71
2023/08/30 10:16:35;;;;;;;9.48;5.60;;;;;;;;;;5054872;28;20272;-72
2023/08/30 10:19:07;;;;;;;7.90;5.00;;;;;;;;;;5055709;28;20422;-73
2023/08/30 10:21:34;;;;;;;7.22;4.25;;;;;;;;;;5056386;28;20070;-72
2023/08/30 10:24:01;;;;;;;6.45;4.22;;;;;;;;;;5058664;28;20047;-74
2023/08/30 10:26:27;;;;;;;6.03;3.90;;;;;;;;;;5058653;28;20017;-72
2023/08/30 10:28:53;;;;;;;8.07;3.60;;;;;;;;;;5054895;28;20079;-72
2023/08/30 10:31:18;;;;;;;5.70;2.78;;;;;;;;;;5056684;28;20024;-74
2023/08/30 10:33:50;;;;;;;9.65;2.80;;;;;;;;;;5056226;28;20016;-73
2023/08/30 10:36:25;;;;;;;9.13;2.90;;;;;;;;;;5057543;28;20041;-73
2023/08/30 10:38:50;;;;;;;5.22;2.80;;;;;;;;;;5061213;28;20032;-72
2023/08/30 10:41:26;;;;;;;6.20;2.60;;;;;;;;;;5058407;28;20468;-73
2023/08/30 10:43:52;;;;;;;7.68;2.47;;;;;;;;;;5054259;28;20025;-73
2023/08/30 10:46:17;;;;;;;7.38;2.40;;;;;;;;;;5055339;28;20021;-74
2023/08/30 10:48:43;;;;;;;7.40;2.75;;;;;;;;;;5055725;28;20415;-73
2023/08/30 10:51:28;;;;;;;10.40;2.55;;;;;;;;;;5054331;28;20075;-73
2023/08/30 10:54:00;;;;;;;6.53;2.25;;;;;;;;;;5046811;28;20045;-73
2023/08/30 10:56:29;;;;;;;5.68;2.40;;;;;;;;;;5061212;28;20017;-73
2023/08/30 10:58:54;;;;;;;9.82;2.55;;;;;;;;;;5056369;28;20490;-73
2023/08/30 11:01:20;;;;;;;9.90;2.67;;;;;;;;;;5055166;28;20021;-73
2023/08/30 11:03:45;;;;;;;9.98;2.88;;;;;;;;;;5053154;28;20529;-73
2023/08/30 11:06:14;;;;;;;11.60;2.45;;;;;;;;;;5055057;28;20029;-73
2023/08/30 11:08:39;;;;;;;8.80;3.00;;;;;;;;;;5054436;28;20550;-74
2023/08/30 11:11:05;;;;;;;7.43;2.80;;;;;;;;;;5053438;28;20021;-74
2023/08/30 11:13:30;;;;;;;8.00;2.67;;;;;;;;;;5054453;28;20054;-73
2023/08/30 11:15:59;;;;;;;9.05;2.90;;;;;;;;;;5055332;28;20021;-73
2023/08/30 11:18:24;;;;;;;7.15;2.72;;;;;;;;;;5057148;28;20017;-73
2023/08/30 11:20:53;;;;;;;10.30;3.10;;;;;;;;;;5058643;28;20518;-73
2023/08/30 11:23:18;;;;;;;8.70;2.80;;;;;;;;;;5056771;28;20321;-73
2023/08/30 11:25:49;;;;;;;7.27;2.60;;;;;;;;;;5055248;28;20385;-72
2023/08/30 11:28:21;;;;;;;7.95;2.75;;;;;;;;;;5054217;28;20052;-72
2023/08/30 11:30:46;;;;;;;7.87;2.70;;;;;;;;;;5055534;28;20028;-73
2023/08/30 11:33:11;;;;;;;9.80;2.80;;;;;;;;;;5054081;28;20742;-73
2023/08/30 11:35:37;;;;;;;9.47;2.90;;;;;;;;;;5053924;28;20023;-72
2023/08/30 11:38:02;;;;;;;8.82;2.80;;;;;;;;;;5054486;28;20025;-73
2023/08/30 11:40:27;;;;;;;8.15;2.40;;;;;;;;;;5053763;28;20040;-73
2023/08/30 11:42:54;;;;;;;10.80;2.28;;;;;;;;;;5054483;28;20021;-73
2023/08/30 11:45:19;;;;;;;8.38;2.50;;;;;;;;;;5054050;28;20032;-74
2023/08/30 11:47:44;;;;;;;11.53;2.40;;;;;;;;;;5053280;28;20025;-73
2023/08/30 11:50:10;;;;;;;11.88;2.85;;;;;;;;;;5053974;28;20013;-74
2023/08/30 11:52:37;;;;;;;12.40;2.35;;;;;;;;;;5053144;28;20037;-73
2023/08/30 11:55:02;;;;;;;10.98;2.60;;;;;;;;;;5054641;28;20025;-73
2023/08/30 11:57:32;;;;;;;10.13;2.17;;;;;;;;;;5054607;28;20342;-74
2023/08/30 12:00:06;;;;;;;11.90;2.72;;;;;;;;;;5052491;28;20028;-73
2023/08/30 12:02:31;;;;;;;12.20;2.30;;;;;;;;;;5062410;28;20013;-73
2023/08/30 12:04:59;;;;;;;8.17;2.30;;;;;;;;;;5055484;28;20025;-72
2023/08/30 12:07:25;;;;;;;11.45;2.58;;;;;;;;;;5053531;28;20017;-72
2023/08/30 12:09:50;;;;;;;11.25;2.65;;;;;;;;;;5053816;28;20423;-72
2023/08/30 12:12:15;;;;;;;9.48;2.60;;;;;;;;;;5053205;28;20021;-72
2023/08/30 12:14:40;;;;;;;10.53;2.50;;;;;;;;;;5065917;28;20081;-72
2023/08/30 12:17:08;;;;;;;9.60;2.20;;;;;;;;;;5073764;28;20080;-73
2023/08/30 12:19:33;;;;;;;10.48;2.50;;;;;;;;;;5065066;28;20738;-73
2023/08/30 12:22:05;;;;;;;8.40;2.20;;;;;;;;;;5057552;28;20103;-73
2023/08/30 12:24:45;;;;;;;8.45;2.47;;;;;;;;;;5056543;28;20017;-73
2023/08/30 12:27:10;;;;;;;9.80;2.50;;;;;;;;;;5059838;28;20028;-72
2023/08/30 12:29:36;;;;;;;8.45;2.40;;;;;;;;;;5058399;28;20384;-72
2023/08/30 12:32:01;;;;;;;8.25;2.33;;;;;;;;;;5053132;28;20486;-72
2023/08/30 12:34:26;;;;;;;7.27;2.13;;;;;;;;;;5053517;28;20096;-72
2023/08/30 12:36:51;;;;;;;9.80;2.37;;;;;;;;;;5057542;28;20342;-72
2023/08/30 12:39:16;;;;;;;14.27;2.37;;;;;;;;;;5056375;28;20017;-71
2023/08/30 12:41:42;;;;;;;8.63;2.00;;;;;;;;;;5057668;28;20263;-73
2023/08/30 12:44:08;;;;;;;9.25;2.28;;;;;;;;;;5058525;28;20104;-71
2023/08/30 12:46:33;;;;;;;12.80;2.50;;;;;;;;;;5057115;28;20013;-70
2023/08/30 12:48:58;;;;;;;9.00;2.17;;;;;;;;;;5055995;28;20052;-70
2023/08/30 12:51:23;;;;;;;13.30;2.33;;;;;;;;;;5053075;28;20048;-71
2023/08/30 12:53:49;;;;;;;10.40;2.23;;;;;;;;;;5054671;28;20427;-71
2023/08/30 12:56:14;;;;;;;11.90;2.40;;;;;;;;;;5054167;28;20017;-71
2023/08/30 12:58:39;;;;;;;8.50;2.13;;;;;;;;;;5053801;28;20032;-71
2023/08/30 13:01:04;;;;;;;11.20;2.50;;;;;;;;;;5053844;28;20427;-72
2023/08/30 13:03:29;;;;;;;8.57;2.10;;;;;;;;;;5054970;28;20100;-71
2023/08/30 13:05:55;;;;;;;11.27;2.50;;;;;;;;;;5054459;28;20031;-72
2023/08/30 13:08:20;;;;;;;9.80;2.20;;;;;;;;;;5057045;28;20043;-72
2023/08/30 13:10:45;;;;;;;9.30;2.17;;;;;;;;;;5058072;28;20048;-72
2023/08/30 13:13:10;;;;;;;9.30;2.50;;;;;;;;;;5056872;28;20036;-71
2023/08/30 13:15:35;;;;;;;9.70;2.60;;;;;;;;;;5057774;28;20575;-71
2023/08/30 13:18:00;;;;;;;7.28;2.00;;;;;;;;;;5056811;28;20021;-71
2023/08/30 13:20:26;;;;;;;8.27;1.97;;;;;;;;;;5060161;28;20036;-72
2023/08/30 13:22:51;;;;;;;8.23;2.03;;;;;;;;;;5059787;28;20554;-72
2023/08/30 13:25:16;;;;;;;8.97;2.00;;;;;;;;;;5057930;28;20789;-72
2023/08/30 13:27:41;;;;;;;9.23;1.90;;;;;;;;;;5056180;28;20263;-73
2023/08/30 13:30:07;;;;;;;10.23;2.00;;;;;;;;;;5056214;28;20353;-72
2023/08/30 13:32:33;;;;;;;8.68;1.90;;;;;;;;;;5057160;28;20044;-72
2023/08/30 13:34:59;;;;;;;11.05;2.40;;;;;;;;;;5058173;28;20040;-72
2023/08/30 13:37:24;;;;;;;8.90;2.00;;;;;;;;;;5057853;28;20025;-72
2023/08/30 13:39:49;;;;;;;7.93;2.10;;;;;;;;;;5057347;28;20017;-72
2023/08/30 13:42:15;;;;;;;5.78;1.70;;;;;;;;;;5056985;28;20016;-72
2023/08/30 13:44:42;;;;;;;5.85;1.90;;;;;;;;;;5056545;28;20013;-72
2023/08/30 13:47:07;;;;;;;6.38;1.90;;;;;;;;;;5056978;28;20048;-71
2023/08/30 13:49:32;;;;;;;4.30;1.50;;;;;;;;;;5057408;28;20043;-71
2023/08/30 13:51:58;;;;;;;8.77;1.80;;;;;;;;;;5057441;28;20655;-71
2023/08/30 13:54:23;;;;;;;7.82;1.83;;;;;;;;;;5057349;28;20714;-71
2023/08/30 13:56:48;;;;;;;9.07;1.90;;;;;;;;;;5058012;28;20024;-71
2023/08/30 13:59:14;;;;;;;9.03;1.97;;;;;;;;;;5058594;28;20013;-70
2023/08/30 14:01:39;;;;;;;8.20;2.20;;;;;;;;;;5057228;28;20277;-71
2023/08/30 14:04:05;;;;;;;7.72;2.05;;;;;;;;;;5054708;28;20355;-71
2023/08/30 14:06:30;;;;;;;11.55;2.20;;;;;;;;;;5054740;28;20040;-72
2023/08/30 14:08:55;;;;;;;7.35;1.85;;;;;;;;;;5053657;28;20048;-69
2023/08/30 14:11:21;;;;;;;6.60;1.90;;;;;;;;;;5055060;28;20021;-70
2023/08/30 14:13:46;;;;;;;8.07;1.90;;;;;;;;;;5061010;28;20032;-71
2023/08/30 14:16:11;;;;;;;7.73;2.10;;;;;;;;;;5059988;28;20661;-70
2023/08/30 14:18:36;;;;;;;12.35;2.00;;;;;;;;;;5060203;28;20341;-70
2023/08/30 14:21:02;;;;;;;7.53;2.10;;;;;;;;;;5055887;28;20028;-69
2023/08/30 14:23:28;;;;;;;9.07;1.90;;;;;;;;;;5059123;28;20263;-70
2023/08/30 14:25:58;;;;;;;5.70;1.88;;;;;;;;;;5056482;28;20017;-71